Time;durP1;ratioP1;P1;durP2;ratioP2;P2;SDS_P1;SDS_P2;PMS_P1;PMS_P2;Temp;Humidity;BMP_temperature;BMP_pressure;BME280_temperature;BME280_humidity;BME280_pressure;Samples;Min_cycle;Max_cycle;Signal;HPM_P1;HPM_P2
2022/07/07 00:01:08;;;;;;;;;;;19.30;83.00;;;;;;5070301;28;19978;-51
2022/07/07 00:03:33;;;;;;;;;;;19.20;83.10;;;;;;5069610;28;19912;-54
2022/07/07 00:05:59;;;;;;;;;;;19.20;83.70;;;;;;5070749;28;19909;-55
2022/07/07 00:08:25;;;;;;;;;;;19.20;83.20;;;;;;5074219;28;19909;-56
2022/07/07 00:10:50;;;;;;;;;;;19.20;82.90;;;;;;5073833;28;19915;-54
2022/07/07 00:13:16;;;;;;;;;;;19.20;83.80;;;;;;5073496;28;20258;-54
2022/07/07 00:15:45;;;;;;;;;;;19.10;84.10;;;;;;5073883;28;20273;-55
2022/07/07 00:18:14;;;;;;;;;;;19.10;83.50;;;;;;5073260;28;19928;-55
2022/07/07 00:20:39;;;;;;;;;;;19.10;83.60;;;;;;5074303;28;19963;-54
2022/07/07 00:23:05;;;;;;;;;;;19.00;84.30;;;;;;5073564;28;20333;-55
2022/07/07 00:25:30;;;;;;;;;;;19.00;84.10;;;;;;5073492;28;19909;-54
2022/07/07 00:27:56;;;;;;;;;;;19.00;84.30;;;;;;5066915;28;19920;-56
2022/07/07 00:30:21;;;;;;;;;;;19.00;83.40;;;;;;5073472;28;19913;-55
2022/07/07 00:32:47;;;;;;;;;;;19.00;83.50;;;;;;5072594;28;20289;-55
2022/07/07 00:35:13;;;;;;;;;;;19.00;83.80;;;;;;5073168;28;20003;-55
2022/07/07 00:37:39;;;;;;;;;;;19.00;83.60;;;;;;5073329;28;19943;-54
2022/07/07 00:40:05;;;;;;;;;;;19.00;84.70;;;;;;5072991;28;19912;-53
2022/07/07 00:42:31;;;;;;;;;;;19.00;83.90;;;;;;5073492;28;19943;-55
2022/07/07 00:44:56;;;;;;;;;;;19.00;85.20;;;;;;5072830;28;20403;-55
2022/07/07 00:47:22;;;;;;;;;;;18.90;84.80;;;;;;5072598;28;20003;-56
2022/07/07 00:49:47;;;;;;;;;;;18.90;84.60;;;;;;5073059;28;19912;-56
2022/07/07 00:52:13;;;;;;;;;;;18.90;85.20;;;;;;5072859;28;19957;-55
2022/07/07 00:54:39;;;;;;;;;;;18.80;86.30;;;;;;5072731;28;19954;-55
2022/07/07 00:57:05;;;;;;;;;;;18.80;85.80;;;;;;5073165;28;19969;-53
2022/07/07 00:59:31;;;;;;;;;;;18.80;85.40;;;;;;5072629;28;19916;-57
2022/07/07 01:01:57;;;;;;;;;;;18.70;85.70;;;;;;5071844;28;19924;-56
2022/07/07 01:04:23;;;;;;;;;;;18.70;86.10;;;;;;5069620;28;19908;-56
2022/07/07 01:06:48;;;;;;;;;;;18.70;87.10;;;;;;5072763;28;19908;-55
2022/07/07 01:09:14;;;;;;;;;;;18.60;86.70;;;;;;5072695;28;19908;-55
2022/07/07 01:11:51;;;;;;;;;;;18.60;86.30;;;;;;5048668;28;20525;-55
2022/07/07 01:14:17;;;;;;;;;;;18.60;86.50;;;;;;5070990;28;19908;-54
2022/07/07 01:16:43;;;;;;;;;;;18.60;86.40;;;;;;5071859;28;20011;-56
2022/07/07 01:19:08;;;;;;;;;;;18.60;86.80;;;;;;5068259;28;19916;-54
2022/07/07 01:21:39;;;;;;;;;;;18.60;86.70;;;;;;5071978;28;20464;-54
2022/07/07 01:24:05;;;;;;;;;;;18.60;86.30;;;;;;5072443;28;20007;-56
2022/07/07 01:26:31;;;;;;;;;;;18.50;86.50;;;;;;5071953;28;20000;-57
2022/07/07 01:28:57;;;;;;;;;;;18.50;86.10;;;;;;5071789;28;19919;-56
2022/07/07 01:31:22;;;;;;;;;;;18.50;86.60;;;;;;5072586;28;19909;-54
2022/07/07 01:33:48;;;;;;;;;;;18.50;86.40;;;;;;5072003;28;19909;-56
2022/07/07 01:36:13;;;;;;;;;;;18.50;87.00;;;;;;5072126;28;20005;-52
2022/07/07 01:38:39;;;;;;;;;;;18.50;86.70;;;;;;5069219;28;20381;-54
2022/07/07 01:41:04;;;;;;;;;;;18.50;87.50;;;;;;5071391;28;19974;-55
2022/07/07 01:43:30;;;;;;;;;;;18.50;86.70;;;;;;5071607;28;20446;-57
2022/07/07 01:45:55;;;;;;;;;;;18.40;87.00;;;;;;5071645;28;19908;-55
2022/07/07 01:48:22;;;;;;;;;;;18.40;86.70;;;;;;5071953;28;19924;-56
2022/07/07 01:50:47;;;;;;;;;;;18.40;87.50;;;;;;5071405;28;19908;-57
2022/07/07 01:53:13;;;;;;;;;;;18.40;86.70;;;;;;5070384;28;19908;-55
2022/07/07 01:55:38;;;;;;;;;;;18.30;88.20;;;;;;5065921;28;19909;-56
2022/07/07 01:58:04;;;;;;;;;;;18.30;87.40;;;;;;5071620;28;19923;-54
2022/07/07 02:00:29;;;;;;;;;;;18.30;88.00;;;;;;5070678;28;19912;-57
2022/07/07 02:02:55;;;;;;;;;;;18.30;87.10;;;;;;5072019;28;20369;-55
2022/07/07 02:05:20;;;;;;;;;;;18.30;88.20;;;;;;5071644;28;19915;-54
2022/07/07 02:07:47;;;;;;;;;;;18.30;88.50;;;;;;5070945;28;20024;-57
2022/07/07 02:11:12;;;;;;;;;;;18.30;87.60;;;;;;5071238;28;19912;-55
2022/07/07 02:12:59;;;;;;;;;;;18.30;88.50;;;;;;5070957;28;19919;-58
2022/07/07 02:15:25;;;;;;;;;;;18.30;88.50;;;;;;5071944;28;20339;-55
2022/07/07 02:17:50;;;;;;;;;;;18.20;88.00;;;;;;5071079;28;20491;-57
2022/07/07 02:20:16;;;;;;;;;;;18.20;87.50;;;;;;5071069;28;19994;-56
2022/07/07 02:22:41;;;;;;;;;;;18.10;88.20;;;;;;5071332;28;19909;-56
2022/07/07 02:25:07;;;;;;;;;;;18.10;87.80;;;;;;5053016;28;19909;-55
2022/07/07 02:27:32;;;;;;;;;;;18.10;88.60;;;;;;5064618;28;19912;-57
2022/07/07 02:29:58;;;;;;;;;;;18.10;88.40;;;;;;5070309;28;19916;-54
2022/07/07 02:32:23;;;;;;;;;;;18.10;89.00;;;;;;5071628;28;19919;-57
2022/07/07 02:34:49;;;;;;;;;;;18.00;88.80;;;;;;5065440;28;19917;-56
2022/07/07 02:37:14;;;;;;;;;;;18.00;88.50;;;;;;5069810;28;19912;-56
2022/07/07 02:39:40;;;;;;;;;;;18.00;88.90;;;;;;5066085;28;19915;-56
2022/07/07 02:42:05;;;;;;;;;;;17.90;89.30;;;;;;5070577;28;19938;-55
2022/07/07 02:44:31;;;;;;;;;;;17.90;88.80;;;;;;5070713;28;20533;-55
2022/07/07 02:46:56;;;;;;;;;;;17.90;90.00;;;;;;5070821;28;19921;-53
2022/07/07 02:49:22;;;;;;;;;;;17.90;88.60;;;;;;5067209;28;19913;-54
2022/07/07 02:51:47;;;;;;;;;;;17.80;89.70;;;;;;5071118;28;19938;-56
2022/07/07 02:54:13;;;;;;;;;;;17.80;89.40;;;;;;5071050;28;20812;-55
2022/07/07 02:56:38;;;;;;;;;;;17.70;89.80;;;;;;5070428;28;19909;-55
2022/07/07 02:59:04;;;;;;;;;;;17.70;90.00;;;;;;5070862;28;20062;-55
2022/07/07 03:01:29;;;;;;;;;;;17.70;90.10;;;;;;5070517;28;20274;-53
2022/07/07 03:03:55;;;;;;;;;;;17.70;89.60;;;;;;5070524;28;20234;-54
2022/07/07 03:06:20;;;;;;;;;;;17.70;90.30;;;;;;5071125;28;19947;-56
2022/07/07 03:08:46;;;;;;;;;;;17.70;90.20;;;;;;5070438;28;20373;-55
2022/07/07 03:11:12;;;;;;;;;;;17.60;90.40;;;;;;5070556;28;19912;-55
2022/07/07 03:13:38;;;;;;;;;;;17.60;90.50;;;;;;5070677;28;19920;-55
2022/07/07 03:16:03;;;;;;;;;;;17.60;90.70;;;;;;5070696;28;20009;-54
2022/07/07 03:18:29;;;;;;;;;;;17.60;90.80;;;;;;5070805;28;19935;-56
2022/07/07 03:20:54;;;;;;;;;;;17.60;91.00;;;;;;5033337;28;19924;-56
2022/07/07 03:23:20;;;;;;;;;;;17.60;90.80;;;;;;5070105;28;19920;-56
2022/07/07 03:25:45;;;;;;;;;;;17.60;90.60;;;;;;5070324;28;19916;-55
2022/07/07 03:28:11;;;;;;;;;;;17.60;91.00;;;;;;5070238;28;19962;-54
2022/07/07 03:30:36;;;;;;;;;;;17.50;91.10;;;;;;5070494;28;20038;-54
2022/07/07 03:33:02;;;;;;;;;;;17.50;91.10;;;;;;5070903;28;20341;-54
2022/07/07 03:35:28;;;;;;;;;;;17.40;91.30;;;;;;5070440;28;19935;-56
2022/07/07 03:37:53;;;;;;;;;;;17.50;91.40;;;;;;5069832;28;19920;-54
2022/07/07 03:40:19;;;;;;;;;;;17.50;91.30;;;;;;5071138;28;19927;-55
2022/07/07 03:42:44;;;;;;;;;;;17.40;91.30;;;;;;5074352;28;19912;-55
2022/07/07 03:45:10;;;;;;;;;;;17.50;91.20;;;;;;5074389;28;20426;-56
2022/07/07 03:47:35;;;;;;;;;;;17.50;91.10;;;;;;5073848;28;20453;-56
2022/07/07 03:50:01;;;;;;;;;;;17.40;91.50;;;;;;5073807;28;19908;-56
2022/07/07 03:52:26;;;;;;;;;;;17.40;91.80;;;;;;5073781;28;19966;-57
2022/07/07 03:54:52;;;;;;;;;;;17.40;92.00;;;;;;5073531;28;19947;-57
2022/07/07 03:57:17;;;;;;;;;;;17.40;92.00;;;;;;5073933;28;19912;-56
2022/07/07 03:59:43;;;;;;;;;;;17.40;92.10;;;;;;5074269;28;20292;-56
2022/07/07 04:02:09;;;;;;;;;;;17.40;92.00;;;;;;5073396;28;20003;-55
2022/07/07 04:04:35;;;;;;;;;;;17.50;92.10;;;;;;5073856;28;19920;-56
2022/07/07 04:07:00;;;;;;;;;;;17.40;92.00;;;;;;5073752;28;19909;-57
2022/07/07 04:09:26;;;;;;;;;;;17.40;92.60;;;;;;5072688;28;19978;-56
2022/07/07 04:11:51;;;;;;;;;;;17.40;91.90;;;;;;5073495;28;19914;-56
2022/07/07 04:14:17;;;;;;;;;;;17.40;92.30;;;;;;5073944;28;20327;-55
2022/07/07 04:16:42;;;;;;;;;;;17.40;92.40;;;;;;5073699;28;19915;-56
2022/07/07 04:19:08;;;;;;;;;;;17.40;92.60;;;;;;5073505;28;19909;-53
2022/07/07 04:21:33;;;;;;;;;;;17.40;93.00;;;;;;5073811;28;19917;-55
2022/07/07 04:23:59;;;;;;;;;;;17.50;92.70;;;;;;5073379;28;19908;-56
2022/07/07 04:26:25;;;;;;;;;;;17.50;92.60;;;;;;5055434;28;19912;-55
2022/07/07 04:28:50;;;;;;;;;;;17.40;93.00;;;;;;5073306;28;19915;-55
2022/07/07 04:31:16;;;;;;;;;;;17.50;93.10;;;;;;5066626;28;19913;-56
2022/07/07 04:33:41;;;;;;;;;;;17.50;93.30;;;;;;5073815;28;19916;-55
2022/07/07 04:36:07;;;;;;;;;;;17.50;93.20;;;;;;5048822;28;20391;-56
2022/07/07 04:38:33;;;;;;;;;;;17.50;93.20;;;;;;5073022;28;20003;-56
2022/07/07 04:40:58;;;;;;;;;;;17.50;93.40;;;;;;5072712;28;20012;-56
2022/07/07 04:43:24;;;;;;;;;;;17.50;93.50;;;;;;5072986;28;19966;-55
2022/07/07 04:45:49;;;;;;;;;;;17.50;93.80;;;;;;5072574;28;19909;-55
2022/07/07 04:48:15;;;;;;;;;;;17.50;93.80;;;;;;5073167;28;19931;-56
2022/07/07 04:50:40;;;;;;;;;;;17.50;93.90;;;;;;5072618;28;19913;-55
2022/07/07 04:53:06;;;;;;;;;;;17.60;94.10;;;;;;5068983;28;20039;-54
2022/07/07 04:55:31;;;;;;;;;;;17.60;94.10;;;;;;5072915;28;19909;-56
2022/07/07 04:57:57;;;;;;;;;;;17.60;94.30;;;;;;5072682;28;19931;-56
2022/07/07 05:00:22;;;;;;;;;;;17.60;94.50;;;;;;5072668;28;19915;-56
2022/07/07 05:02:48;;;;;;;;;;;17.70;94.50;;;;;;5069462;28;19916;-56
2022/07/07 05:05:13;;;;;;;;;;;17.70;94.70;;;;;;5071942;28;19954;-55
2022/07/07 05:07:39;;;;;;;;;;;17.70;94.60;;;;;;5072163;28;20360;-52
2022/07/07 05:10:04;;;;;;;;;;;17.70;94.80;;;;;;5065807;28;19920;-55
2022/07/07 05:12:30;;;;;;;;;;;17.60;95.00;;;;;;5072602;28;19908;-56
2022/07/07 05:14:56;;;;;;;;;;;17.60;95.00;;;;;;5072344;28;19912;-56
2022/07/07 05:17:22;;;;;;;;;;;17.60;95.20;;;;;;5072527;28;19908;-56
2022/07/07 05:19:47;;;;;;;;;;;17.60;95.30;;;;;;5071886;28;19962;-53
2022/07/07 05:22:13;;;;;;;;;;;17.60;95.40;;;;;;5072111;28;20365;-55
2022/07/07 05:24:38;;;;;;;;;;;17.60;95.60;;;;;;5072140;28;19912;-55
2022/07/07 05:27:04;;;;;;;;;;;17.60;95.50;;;;;;5072066;28;19962;-57
2022/07/07 05:29:30;;;;;;;;;;;17.70;95.60;;;;;;5071982;28;20357;-57
2022/07/07 05:31:55;;;;;;;;;;;17.70;95.70;;;;;;5072359;28;19908;-56
2022/07/07 05:34:21;;;;;;;;;;;17.70;96.10;;;;;;5071955;28;19908;-56
2022/07/07 05:36:46;;;;;;;;;;;17.70;95.80;;;;;;5071673;28;19983;-57
2022/07/07 05:39:15;;;;;;;;;;;17.70;95.90;;;;;;5072086;28;19916;-56
2022/07/07 05:41:41;;;;;;;;;;;17.70;96.00;;;;;;5065056;28;19924;-57
2022/07/07 05:44:06;;;;;;;;;;;17.70;96.00;;;;;;5071640;28;19912;-56
2022/07/07 05:46:32;;;;;;;;;;;17.80;96.20;;;;;;5071261;28;20546;-57
2022/07/07 05:48:57;;;;;;;;;;;17.80;96.40;;;;;;5071876;28;19923;-57
2022/07/07 05:51:23;;;;;;;;;;;17.80;96.40;;;;;;5070370;28;19912;-56
2022/07/07 05:53:49;;;;;;;;;;;17.90;96.20;;;;;;5071899;28;20001;-55
2022/07/07 05:56:14;;;;;;;;;;;17.90;96.30;;;;;;5070960;28;19955;-55
2022/07/07 05:58:40;;;;;;;;;;;17.90;96.50;;;;;;5070954;28;19912;-56
2022/07/07 06:01:05;;;;;;;;;;;18.00;96.40;;;;;;5066097;28;19920;-56
2022/07/07 06:03:31;;;;;;;;;;;18.00;96.60;;;;;;5073008;28;19997;-55
2022/07/07 06:05:56;;;;;;;;;;;18.00;96.30;;;;;;5069639;28;19908;-59
2022/07/07 06:08:22;;;;;;;;;;;18.00;96.50;;;;;;5068057;28;19940;-60
2022/07/07 06:10:47;;;;;;;;;;;18.10;96.60;;;;;;5071121;28;20459;-59
2022/07/07 06:13:13;;;;;;;;;;;18.20;96.40;;;;;;5070936;28;19958;-60
2022/07/07 06:15:38;;;;;;;;;;;18.20;96.60;;;;;;5070265;28;19912;-59
2022/07/07 06:18:05;;;;;;;;;;;18.20;96.40;;;;;;5071056;28;19919;-60
2022/07/07 06:20:30;;;;;;;;;;;18.20;96.40;;;;;;5070323;28;20033;-60
2022/07/07 06:22:56;;;;;;;;;;;18.20;96.40;;;;;;5070832;28;19913;-60
2022/07/07 06:25:22;;;;;;;;;;;18.20;96.60;;;;;;5058178;28;20847;-60
2022/07/07 06:27:47;;;;;;;;;;;18.30;96.60;;;;;;5067685;28;20031;-59
2022/07/07 06:30:13;;;;;;;;;;;18.30;96.70;;;;;;5068567;28;19978;-59
2022/07/07 06:32:38;;;;;;;;;;;18.20;96.70;;;;;;5068571;28;19935;-59
2022/07/07 06:35:04;;;;;;;;;;;18.30;96.60;;;;;;5068096;28;19974;-60
2022/07/07 06:37:30;;;;;;;;;;;18.30;96.70;;;;;;5069168;28;19920;-59
2022/07/07 06:39:55;;;;;;;;;;;18.40;96.80;;;;;;5064052;28;19916;-59
2022/07/07 06:42:21;;;;;;;;;;;18.40;96.60;;;;;;5068425;28;20006;-59
2022/07/07 06:44:46;;;;;;;;;;;18.50;96.60;;;;;;5068713;28;20378;-60
2022/07/07 06:47:12;;;;;;;;;;;18.50;96.60;;;;;;5068367;28;19921;-58
2022/07/07 06:49:37;;;;;;;;;;;18.60;96.60;;;;;;5068631;28;19962;-59
2022/07/07 06:52:03;;;;;;;;;;;18.60;96.50;;;;;;5068798;28;19912;-59
2022/07/07 06:54:28;;;;;;;;;;;18.60;96.40;;;;;;5067954;28;20396;-59
2022/07/07 06:56:54;;;;;;;;;;;18.70;96.50;;;;;;5068809;28;19920;-54
2022/07/07 06:59:19;;;;;;;;;;;18.70;96.40;;;;;;5067707;28;19999;-56
2022/07/07 07:01:45;;;;;;;;;;;18.70;96.30;;;;;;5067598;28;19928;-54
2022/07/07 07:04:13;;;;;;;;;;;18.80;96.40;;;;;;5067654;28;20003;-56
2022/07/07 07:06:42;;;;;;;;;;;18.80;96.40;;;;;;5067450;28;19916;-57
2022/07/07 07:09:08;;;;;;;;;;;18.90;96.40;;;;;;5067543;28;20122;-56
2022/07/07 07:11:34;;;;;;;;;;;18.90;96.40;;;;;;5067675;28;20277;-56
2022/07/07 07:14:02;;;;;;;;;;;19.00;96.30;;;;;;5068732;28;19919;-58
2022/07/07 07:16:28;;;;;;;;;;;19.10;96.30;;;;;;5076967;28;19923;-56
2022/07/07 07:18:53;;;;;;;;;;;19.10;96.20;;;;;;5080550;28;19916;-53
2022/07/07 07:21:19;;;;;;;;;;;19.10;96.20;;;;;;5074086;28;19917;-55
2022/07/07 07:23:45;;;;;;;;;;;19.10;96.20;;;;;;5074636;28;20357;-54
2022/07/07 07:26:10;;;;;;;;;;;19.10;96.10;;;;;;5074305;28;19915;-55
2022/07/07 07:28:36;;;;;;;;;;;19.10;96.00;;;;;;5074273;28;19991;-56
2022/07/07 07:31:01;;;;;;;;;;;19.20;95.90;;;;;;5074414;28;19962;-56
2022/07/07 07:33:28;;;;;;;;;;;19.20;95.90;;;;;;5073531;28;20377;-56
2022/07/07 07:35:54;;;;;;;;;;;19.20;96.00;;;;;;5074091;28;19909;-53
2022/07/07 07:38:20;;;;;;;;;;;19.20;95.90;;;;;;5073920;28;19919;-56
2022/07/07 07:40:45;;;;;;;;;;;19.20;95.90;;;;;;5073788;28;20023;-56
2022/07/07 07:43:11;;;;;;;;;;;19.30;95.90;;;;;;5073858;28;19909;-56
2022/07/07 07:45:37;;;;;;;;;;;19.40;95.90;;;;;;5073572;28;19919;-56
2022/07/07 07:48:03;;;;;;;;;;;19.50;95.70;;;;;;5073908;28;19924;-57
2022/07/07 07:50:29;;;;;;;;;;;19.60;95.50;;;;;;5074272;28;20379;-55
2022/07/07 07:52:55;;;;;;;;;;;19.50;95.50;;;;;;5073929;28;20396;-56
2022/07/07 07:55:21;;;;;;;;;;;19.60;95.50;;;;;;5074191;28;19996;-57
2022/07/07 07:57:47;;;;;;;;;;;19.70;95.50;;;;;;5073919;28;19909;-55
2022/07/07 08:00:14;;;;;;;;;;;19.70;95.30;;;;;;5073951;28;20373;-57
2022/07/07 08:02:40;;;;;;;;;;;19.70;95.30;;;;;;5073774;28;19958;-56
2022/07/07 08:05:06;;;;;;;;;;;19.70;95.30;;;;;;5073736;28;20001;-56
2022/07/07 08:07:32;;;;;;;;;;;19.70;95.10;;;;;;5073739;28;19991;-56
2022/07/07 08:09:58;;;;;;;;;;;19.80;95.20;;;;;;5073791;28;19912;-56
2022/07/07 08:12:24;;;;;;;;;;;19.80;95.00;;;;;;5073419;28;19916;-55
2022/07/07 08:14:49;;;;;;;;;;;19.80;94.90;;;;;;5073095;28;19908;-56
2022/07/07 08:17:15;;;;;;;;;;;19.80;94.60;;;;;;5073703;28;20368;-57
2022/07/07 08:19:40;;;;;;;;;;;19.70;94.70;;;;;;5066670;28;20384;-55
2022/07/07 08:22:06;;;;;;;;;;;19.70;94.80;;;;;;5073492;28;19971;-56
2022/07/07 08:24:31;;;;;;;;;;;19.80;94.80;;;;;;5073798;28;19923;-54
2022/07/07 08:26:57;;;;;;;;;;;19.90;94.60;;;;;;5072258;28;19912;-53
2022/07/07 08:29:22;;;;;;;;;;;20.00;94.30;;;;;;5073024;28;19909;-57
2022/07/07 08:31:48;;;;;;;;;;;20.00;94.20;;;;;;5073426;28;20289;-55
2022/07/07 08:34:14;;;;;;;;;;;20.10;94.10;;;;;;5073380;28;20293;-57
2022/07/07 08:36:39;;;;;;;;;;;20.20;94.10;;;;;;5073471;28;19909;-57
2022/07/07 08:39:04;;;;;;;;;;;20.30;93.90;;;;;;5073123;28;19912;-57
2022/07/07 08:41:30;;;;;;;;;;;20.30;94.00;;;;;;5072820;28;19918;-56
2022/07/07 08:43:56;;;;;;;;;;;20.40;94.00;;;;;;5072694;28;19912;-56
2022/07/07 08:46:22;;;;;;;;;;;20.50;93.60;;;;;;5073285;28;19944;-56
2022/07/07 08:48:47;;;;;;;;;;;20.50;93.70;;;;;;5072278;28;20433;-55
2022/07/07 08:51:15;;;;;;;;;;;20.50;93.50;;;;;;5071135;28;19996;-53
2022/07/07 08:53:41;;;;;;;;;;;20.50;93.60;;;;;;5071747;28;20015;-56
2022/07/07 08:56:07;;;;;;;;;;;20.50;93.70;;;;;;5072836;28;19915;-57
2022/07/07 08:58:37;;;;;;;;;;;20.60;93.70;;;;;;5070529;28;20296;-57
2022/07/07 09:01:03;;;;;;;;;;;20.70;93.50;;;;;;5072566;28;19939;-56
2022/07/07 09:03:28;;;;;;;;;;;20.80;93.20;;;;;;5068665;28;19908;-54
2022/07/07 09:05:55;;;;;;;;;;;20.90;93.30;;;;;;5052498;28;20050;-56
2022/07/07 09:08:21;;;;;;;;;;;20.90;93.00;;;;;;5072763;28;19919;-56
2022/07/07 09:10:47;;;;;;;;;;;20.90;93.00;;;;;;5072155;28;20003;-56
2022/07/07 09:13:19;;;;;;;;;;;21.00;93.00;;;;;;5072288;28;20038;-57
2022/07/07 09:15:44;;;;;;;;;;;21.10;92.90;;;;;;5072590;28;19916;-56
2022/07/07 09:18:10;;;;;;;;;;;21.20;92.50;;;;;;5072441;28;19909;-55
2022/07/07 09:20:36;;;;;;;;;;;21.30;92.60;;;;;;5072549;28;20270;-57
2022/07/07 09:23:02;;;;;;;;;;;21.30;92.80;;;;;;5072325;28;19931;-57
2022/07/07 09:25:27;;;;;;;;;;;21.40;92.50;;;;;;5072350;28;20356;-57
2022/07/07 09:28:00;;;;;;;;;;;21.50;92.40;;;;;;5071809;28;19908;-56
2022/07/07 09:30:26;;;;;;;;;;;21.60;92.00;;;;;;5072322;28;20011;-57
2022/07/07 09:32:51;;;;;;;;;;;21.60;91.10;;;;;;5072220;28;19999;-56
2022/07/07 09:38:14;;;;;;;;;;;21.60;90.80;;;;;;5072520;28;19915;-56
2022/07/07 09:40:59;;;;;;;;;;;21.60;90.70;;;;;;5071369;28;19913;-57
2022/07/07 09:43:28;;;;;;;;;;;21.60;90.30;;;;;;5071371;28;19909;-56
2022/07/07 09:46:06;;;;;;;;;;;21.60;90.30;;;;;;5071075;28;20201;-57
2022/07/07 09:48:32;;;;;;;;;;;21.60;90.40;;;;;;5072018;28;20397;-58
2022/07/07 09:51:10;;;;;;;;;;;21.70;90.30;;;;;;5071858;28;19916;-55
2022/07/07 09:53:50;;;;;;;;;;;21.60;90.00;;;;;;5071404;28;19971;-54
2022/07/07 09:56:15;;;;;;;;;;;21.60;90.20;;;;;;5071216;28;20011;-56
2022/07/07 09:58:41;;;;;;;;;;;21.60;90.30;;;;;;5071570;28;19995;-56
2022/07/07 10:01:06;;;;;;;;;;;21.50;90.00;;;;;;5071906;28;19916;-56
2022/07/07 10:03:33;;;;;;;;;;;21.40;90.00;;;;;;5071147;28;19909;-57
2022/07/07 10:05:59;;;;;;;;;;;21.40;90.20;;;;;;5071722;28;19909;-55
2022/07/07 10:08:27;;;;;;;;;;;21.30;90.30;;;;;;5071588;28;19915;-54
2022/07/07 10:10:53;;;;;;;;;;;21.30;90.40;;;;;;5070694;28;19912;-55
2022/07/07 10:13:20;;;;;;;;;;;21.20;90.60;;;;;;5064525;28;20420;-56
2022/07/07 10:15:45;;;;;;;;;;;21.20;91.00;;;;;;5070764;28;20292;-58
2022/07/07 10:18:11;;;;;;;;;;;21.30;90.70;;;;;;5071311;28;19996;-54
2022/07/07 10:20:37;;;;;;;;;;;21.20;90.70;;;;;;5070585;28;19948;-55
2022/07/07 10:23:02;;;;;;;;;;;21.30;90.80;;;;;;5071308;28;19916;-55
2022/07/07 10:25:28;;;;;;;;;;;21.30;90.70;;;;;;5070693;28;19917;-56
2022/07/07 10:27:53;;;;;;;;;;;21.10;90.80;;;;;;5070633;28;19977;-57
2022/07/07 10:30:29;;;;;;;;;;;21.10;90.90;;;;;;5070901;28;19917;-53
2022/07/07 10:32:55;;;;;;;;;;;21.00;90.80;;;;;;5070925;28;19912;-56
2022/07/07 10:35:23;;;;;;;;;;;20.90;90.80;;;;;;5071139;28;19957;-56
2022/07/07 10:37:55;;;;;;;;;;;21.00;90.80;;;;;;5070653;28;20456;-56
2022/07/07 10:40:21;;;;;;;;;;;21.00;90.80;;;;;;5070653;28;19965;-53
2022/07/07 10:42:52;;;;;;;;;;;21.10;90.80;;;;;;5070499;28;20500;-56
2022/07/07 10:45:18;;;;;;;;;;;21.10;90.50;;;;;;5068427;28;20419;-53
2022/07/07 10:47:44;;;;;;;;;;;21.20;90.60;;;;;;5067577;28;20009;-56
2022/07/07 10:50:28;;;;;;;;;;;21.20;90.50;;;;;;5070313;28;19963;-56
2022/07/07 10:52:54;;;;;;;;;;;21.30;90.60;;;;;;5070695;28;19939;-55
2022/07/07 10:55:20;;;;;;;;;;;21.40;90.40;;;;;;5070708;28;19913;-56
2022/07/07 10:57:46;;;;;;;;;;;21.50;90.40;;;;;;5069066;28;20293;-55
2022/07/07 11:00:12;;;;;;;;;;;21.60;90.00;;;;;;5071177;28;19966;-55
2022/07/07 11:02:37;;;;;;;;;;;21.60;90.00;;;;;;5070188;28;19998;-56
2022/07/07 11:05:23;;;;;;;;;;;21.60;90.30;;;;;;5070228;28;20498;-57
2022/07/07 11:07:58;;;;;;;;;;;21.60;89.90;;;;;;5070376;28;19909;-56
2022/07/07 11:10:36;;;;;;;;;;;21.60;88.30;;;;;;5069911;28;19909;-56
2022/07/07 11:13:12;;;;;;;;;;;21.50;88.70;;;;;;5052141;28;20028;-56
2022/07/07 11:15:37;;;;;;;;;;;21.50;89.10;;;;;;5070402;28;19912;-56
2022/07/07 11:18:13;;;;;;;;;;;21.50;88.90;;;;;;5070885;28;19930;-53
2022/07/07 11:20:53;;;;;;;;;;;21.40;89.20;;;;;;5068688;28;19919;-54
2022/07/07 11:23:18;;;;;;;;;;;21.40;89.10;;;;;;5064112;28;19913;-55
2022/07/07 11:25:46;;;;;;;;;;;21.40;89.30;;;;;;5067695;28;19927;-57
2022/07/07 11:28:12;;;;;;;;;;;21.50;89.10;;;;;;5068522;28;19927;-57
2022/07/07 11:30:41;;;;;;;;;;;21.50;88.10;;;;;;5068049;28;19912;-55
2022/07/07 11:33:07;;;;;;;;;;;21.40;88.40;;;;;;5068446;28;19975;-57
2022/07/07 11:35:37;;;;;;;;;;;21.40;88.50;;;;;;5067952;28;19912;-54
2022/07/07 11:38:06;;;;;;;;;;;21.50;88.70;;;;;;5066775;28;19944;-55
2022/07/07 11:40:32;;;;;;;;;;;21.50;88.20;;;;;;5068446;28;20027;-56
2022/07/07 11:43:00;;;;;;;;;;;21.60;88.20;;;;;;5067079;28;19999;-55
2022/07/07 11:45:27;;;;;;;;;;;21.50;88.30;;;;;;5066433;28;19912;-56
2022/07/07 11:47:54;;;;;;;;;;;21.50;88.00;;;;;;5067669;28;19924;-56
2022/07/07 11:50:20;;;;;;;;;;;21.50;88.30;;;;;;5049042;28;20387;-55
2022/07/07 11:52:55;;;;;;;;;;;21.50;88.30;;;;;;5066976;28;19920;-55
2022/07/07 11:55:21;;;;;;;;;;;21.50;88.90;;;;;;5067219;28;20289;-56
2022/07/07 11:57:51;;;;;;;;;;;21.60;88.20;;;;;;5066786;28;19916;-56
2022/07/07 12:00:21;;;;;;;;;;;21.60;88.10;;;;;;5066164;28;19917;-56
2022/07/07 12:02:47;;;;;;;;;;;21.60;87.70;;;;;;5070926;28;19924;-56
2022/07/07 12:05:38;;;;;;;;;;;21.70;86.80;;;;;;5071156;28;20046;-56
2022/07/07 12:08:08;;;;;;;;;;;21.70;87.20;;;;;;5057250;28;19913;-56
2022/07/07 12:10:52;;;;;;;;;;;21.80;87.00;;;;;;5070573;28;19913;-53
2022/07/07 12:13:17;;;;;;;;;;;21.80;87.00;;;;;;5070568;28;19974;-54
2022/07/07 12:15:45;;;;;;;;;;;21.90;86.10;;;;;;5070248;28;20393;-57
2022/07/07 12:18:11;;;;;;;;;;;21.90;85.80;;;;;;5071253;28;19919;-55
2022/07/07 12:20:38;;;;;;;;;;;21.80;85.50;;;;;;5070779;28;19912;-54
2022/07/07 12:23:05;;;;;;;;;;;21.90;86.00;;;;;;5070125;28;19913;-56
2022/07/07 12:25:31;;;;;;;;;;;22.00;85.60;;;;;;5070402;28;19916;-57
2022/07/07 12:27:58;;;;;;;;;;;22.10;85.30;;;;;;5069897;28;19997;-57
2022/07/07 12:30:25;;;;;;;;;;;22.10;84.90;;;;;;5070081;28;19928;-58
2022/07/07 12:32:51;;;;;;;;;;;22.20;84.40;;;;;;5044306;28;20348;-56
2022/07/07 12:35:33;;;;;;;;;;;22.20;83.90;;;;;;5065876;28;19986;-56
2022/07/07 12:38:00;;;;;;;;;;;22.20;83.70;;;;;;5049609;28;19923;-54
2022/07/07 12:40:30;;;;;;;;;;;22.20;83.70;;;;;;5069791;28;19997;-57
2022/07/07 12:42:56;;;;;;;;;;;22.30;83.00;;;;;;5070402;28;19977;-57
2022/07/07 12:45:22;;;;;;;;;;;22.30;82.70;;;;;;5069709;28;19916;-55
2022/07/07 12:47:49;;;;;;;;;;;22.10;82.70;;;;;;5070686;28;19991;-57
2022/07/07 12:50:15;;;;;;;;;;;22.10;82.50;;;;;;5069597;28;19924;-56
2022/07/07 12:52:41;;;;;;;;;;;22.00;82.70;;;;;;5070487;28;19917;-56
2022/07/07 12:55:11;;;;;;;;;;;22.00;83.00;;;;;;5067193;28;19923;-56
2022/07/07 12:57:38;;;;;;;;;;;21.90;83.00;;;;;;5069123;28;19917;-55
2022/07/07 13:00:04;;;;;;;;;;;21.80;83.40;;;;;;5069848;28;19912;-56
2022/07/07 13:02:29;;;;;;;;;;;21.80;83.80;;;;;;5070405;28;19956;-56
2022/07/07 13:04:55;;;;;;;;;;;21.70;83.90;;;;;;5050738;28;20545;-55
2022/07/07 13:07:22;;;;;;;;;;;21.60;84.30;;;;;;5071791;28;20011;-55
2022/07/07 13:09:48;;;;;;;;;;;21.60;84.80;;;;;;5073485;28;19915;-53
2022/07/07 13:12:14;;;;;;;;;;;21.50;84.70;;;;;;5075929;28;19921;-55
2022/07/07 13:14:40;;;;;;;;;;;21.60;85.20;;;;;;5074224;28;19915;-52
2022/07/07 13:17:05;;;;;;;;;;;21.70;85.20;;;;;;5074919;28;19912;-53
2022/07/07 13:19:31;;;;;;;;;;;21.80;85.30;;;;;;5074378;28;19940;-55
2022/07/07 13:21:56;;;;;;;;;;;21.90;84.90;;;;;;5071627;28;19920;-57
2022/07/07 13:24:22;;;;;;;;;;;22.00;84.50;;;;;;5069352;28;20266;-55
2022/07/07 13:26:47;;;;;;;;;;;22.00;84.60;;;;;;5069211;28;20394;-55
2022/07/07 13:29:17;;;;;;;;;;;22.10;84.80;;;;;;5068872;28;19927;-56
2022/07/07 13:31:43;;;;;;;;;;;22.20;84.90;;;;;;5070441;28;19911;-55
2022/07/07 13:34:08;;;;;;;;;;;22.30;84.50;;;;;;5070946;28;20327;-54
2022/07/07 13:36:33;;;;;;;;;;;22.30;84.00;;;;;;5069204;28;20369;-55
2022/07/07 13:38:59;;;;;;;;;;;22.30;84.30;;;;;;5069294;28;19920;-55
2022/07/07 13:41:25;;;;;;;;;;;22.30;83.80;;;;;;5069099;28;19925;-56
2022/07/07 13:43:50;;;;;;;;;;;22.20;84.70;;;;;;5069025;28;19924;-53
2022/07/07 13:46:16;;;;;;;;;;;22.20;84.20;;;;;;5066306;28;19917;-54
2022/07/07 13:48:41;;;;;;;;;;;22.30;84.70;;;;;;5068752;28;20598;-54
2022/07/07 13:51:07;;;;;;;;;;;22.30;84.50;;;;;;5068090;28;20019;-56
2022/07/07 13:53:32;;;;;;;;;;;22.30;84.80;;;;;;5069464;28;19920;-57
2022/07/07 13:55:58;;;;;;;;;;;22.20;85.10;;;;;;5068695;28;19948;-56
2022/07/07 13:58:23;;;;;;;;;;;22.20;85.30;;;;;;5066846;28;19920;-51
2022/07/07 14:00:49;;;;;;;;;;;22.20;85.60;;;;;;5068919;28;19916;-54
2022/07/07 14:03:15;;;;;;;;;;;22.30;85.70;;;;;;5068537;28;20011;-54
2022/07/07 14:05:40;;;;;;;;;;;22.20;85.40;;;;;;5069200;28;20062;-55
2022/07/07 14:08:06;;;;;;;;;;;22.20;86.00;;;;;;5069139;28;20456;-55
2022/07/07 14:10:31;;;;;;;;;;;22.30;85.90;;;;;;5069049;28;19981;-57
2022/07/07 14:12:57;;;;;;;;;;;22.20;85.80;;;;;;5069079;28;19913;-54
2022/07/07 14:15:23;;;;;;;;;;;22.20;85.70;;;;;;5067654;28;20405;-55